Terminal Aerodrome Forecast
Issued by NWS Jackson, KY

Home | Current Version | Previous Version | Text Only | Print | Product List | Glossary On
Versions: 1 2 3 4 5 6 7 8 9 10 11 12 13 14 15 16 17 18 19 20 21
000
FTUS43 KJKL 271200 AAC
TAFJKL
TAF AMD
KJKL 271235Z 2713/2812 32004KT 1 1/2SM -SN BR BKN004 OVC035
     FM271330 30006KT P6SM -RASN OVC030
     FM271400 31006KT P6SM VCSH BKN025
     FM271700 29007KT P6SM BKN020=

USA.gov is the U.S. government's official web portal to all federal, state and local government web resources and services.